Time;durP1;ratioP1;P1;durP2;ratioP2;P2;SDS_P1;SDS_P2;PMS_P1;PMS_P2;Temp;Humidity;BMP_temperature;BMP_pressure;BME280_temperature;BME280_humidity;BME280_pressure;Samples;Min_cycle;Max_cycle;Signal;HPM_P1;HPM_P2
2022/05/08 00:01:51;;;;;;;14.75;12.65;;;;;;;11.50;89.52;101709.63;7399594;19;20076;-66
2022/05/08 00:04:22;;;;;;;15.15;13.45;;;;;;;11.49;89.47;101707.91;7401094;19;20035;-67
2022/05/08 00:06:50;;;;;;;14.93;12.88;;;;;;;11.49;89.44;101715.81;7402675;19;20027;-67
2022/05/08 00:09:18;;;;;;;14.05;12.57;;;;;;;11.48;89.47;101712.28;7400313;19;20011;-66
2022/05/08 00:11:46;;;;;;;13.50;12.10;;;;;;;11.48;89.47;101708.78;7399946;19;20031;-66
2022/05/08 00:14:14;;;;;;;13.93;11.93;;;;;;;11.48;89.57;101709.66;7401005;19;20019;-67
2022/05/08 00:16:42;;;;;;;13.48;12.18;;;;;;;11.48;89.47;101711.41;7402010;19;20039;-67
2022/05/08 00:19:10;;;;;;;12.27;11.07;;;;;;;11.48;89.47;101714.91;7401683;19;20032;-67
2022/05/08 00:21:41;;;;;;;14.63;11.48;;;;;;;11.49;89.41;101710.53;7401386;19;20490;-65
2022/05/08 00:24:09;;;;;;;12.80;11.52;;;;;;;11.50;89.26;101715.78;7399116;19;20022;-66
2022/05/08 00:26:38;;;;;;;12.57;11.15;;;;;;;11.50;89.29;101717.50;7398744;19;20018;-68
2022/05/08 00:29:06;;;;;;;13.57;11.98;;;;;;;11.53;89.23;101717.50;7398634;19;20023;-65
2022/05/08 00:31:34;;;;;;;11.85;10.50;;;;;;;11.54;89.06;101720.09;7401368;19;20015;-64
2022/05/08 00:34:03;;;;;;;15.63;11.48;;;;;;;11.54;89.02;101717.47;7398620;19;20027;-66
2022/05/08 00:36:31;;;;;;;12.38;11.10;;;;;;;11.54;88.99;101712.22;7401176;19;20503;-66
2022/05/08 00:39:01;;;;;;;12.30;11.00;;;;;;;11.55;88.94;101713.06;7398100;19;20370;-67
2022/05/08 00:41:30;;;;;;;11.88;10.75;;;;;;;11.55;88.78;101707.81;7398826;19;20026;-64
2022/05/08 00:43:58;;;;;;;14.10;11.35;;;;;;;11.57;88.84;101706.94;7399928;19;20634;-65
2022/05/08 00:46:27;;;;;;;11.80;10.02;;;;;;;11.57;88.76;101708.69;7398199;19;20018;-65
2022/05/08 00:48:56;;;;;;;13.27;11.02;;;;;;;11.57;88.69;101712.22;7397723;19;20078;-65
2022/05/08 00:51:26;;;;;;;12.55;10.65;;;;;;;11.56;88.63;101710.47;7400268;19;20468;-65
2022/05/08 00:53:56;;;;;;;12.13;10.73;;;;;;;11.56;88.62;101704.31;7399935;19;20018;-65
2022/05/08 00:56:26;;;;;;;12.88;10.73;;;;;;;11.56;88.49;101702.56;7400293;19;20024;-65
2022/05/08 00:58:55;;;;;;;12.18;10.50;;;;;;;11.56;88.36;101710.47;7397576;19;20480;-65
2022/05/08 01:01:23;;;;;;;11.50;10.30;;;;;;;11.56;88.34;101709.56;7397847;19;20014;-65
2022/05/08 01:03:52;;;;;;;11.45;10.25;;;;;;;11.56;88.31;101710.47;7399297;19;20438;-65
2022/05/08 01:06:21;;;;;;;11.98;10.77;;;;;;;11.55;88.20;101711.34;7398709;19;20430;-67
2022/05/08 01:08:51;;;;;;;12.52;10.68;;;;;;;11.53;88.15;101705.22;7397562;19;20026;-62
2022/05/08 01:11:20;;;;;;;11.77;10.57;;;;;;;11.55;88.18;101711.34;7400016;19;20464;-65
2022/05/08 01:13:51;;;;;;;11.68;10.48;;;;;;;11.54;88.07;101709.59;7398206;19;20018;-65
2022/05/08 01:16:21;;;;;;;16.48;11.45;;;;;;;11.55;88.10;101707.81;7397846;19;20022;-65
2022/05/08 01:18:51;;;;;;;11.68;10.50;;;;;;;11.55;88.02;101716.59;7399534;19;20396;-65
2022/05/08 01:21:21;;;;;;;11.00;9.70;;;;;;;11.56;87.80;101713.09;7399991;19;20015;-65
2022/05/08 01:23:52;;;;;;;11.85;9.93;;;;;;;11.56;87.96;101710.47;7398982;19;20018;-65
2022/05/08 01:26:23;;;;;;;11.95;10.00;;;;;;;11.57;87.78;101717.47;7400489;19;20019;-65
2022/05/08 01:28:51;;;;;;;14.02;10.07;;;;;;;11.60;87.78;101715.66;7397203;19;20023;-65
2022/05/08 01:31:19;;;;;;;15.45;10.55;;;;;;;11.60;87.66;101723.56;7399013;19;20367;-65
2022/05/08 01:33:47;;;;;;;11.40;9.82;;;;;;;11.62;87.80;101724.44;7396887;19;20022;-65
2022/05/08 01:36:15;;;;;;;13.27;10.02;;;;;;;11.61;87.62;101722.69;7399146;19;20039;-65
2022/05/08 01:38:43;;;;;;;11.27;10.18;;;;;;;11.61;87.54;101730.56;7396842;19;20046;-65
2022/05/08 01:41:14;;;;;;;12.80;10.63;;;;;;;11.61;87.39;101726.16;7396707;19;20018;-65
2022/05/08 01:43:43;;;;;;;10.45;9.45;;;;;;;11.61;87.46;101728.78;7397129;19;20019;-65
2022/05/08 01:46:12;;;;;;;12.23;9.93;;;;;;;11.62;87.37;101727.06;7398877;19;20028;-65
2022/05/08 01:48:44;;;;;;;15.15;10.25;;;;;;;11.62;87.20;101720.03;7396066;19;20021;-65
2022/05/08 01:51:12;;;;;;;10.95;9.75;;;;;;;11.63;87.21;101728.78;7398402;19;20476;-64
2022/05/08 01:53:41;;;;;;;9.65;8.68;;;;;;;11.65;87.17;101727.00;7399109;19;20078;-63
2022/05/08 01:56:09;;;;;;;10.10;9.10;;;;;;;11.65;87.00;101724.38;7396075;19;20480;-64
2022/05/08 01:58:39;;;;;;;14.88;9.35;;;;;;;11.65;87.11;101722.63;7398551;19;20036;-68
2022/05/08 02:01:11;;;;;;;13.73;9.90;;;;;;;11.67;87.15;101730.50;7396418;19;20015;-64
2022/05/08 02:03:41;;;;;;;12.13;10.82;;;;;;;11.68;87.07;101724.38;7396631;19;20112;-66
2022/05/08 02:06:09;;;;;;;12.40;10.35;;;;;;;11.70;87.19;101733.09;7398283;19;20018;-65
2022/05/08 02:08:37;;;;;;;13.55;10.90;;;;;;;11.71;87.40;101729.56;7396066;19;20038;-65
2022/05/08 02:11:06;;;;;;;13.15;10.63;;;;;;;11.73;87.22;101730.44;7395675;19;20480;-65
2022/05/08 02:13:34;;;;;;;13.30;10.35;;;;;;;11.72;87.55;101724.28;7396017;19;20104;-64
2022/05/08 02:16:06;;;;;;;12.98;10.55;;;;;;;11.74;87.56;101729.56;7395893;19;20039;-64
2022/05/08 02:18:34;;;;;;;13.13;10.60;;;;;;;11.75;87.79;101728.63;7395649;19;20022;-65
2022/05/08 02:21:02;;;;;;;11.50;10.02;;;;;;;11.75;87.85;101739.16;7396216;19;20412;-65
2022/05/08 02:23:30;;;;;;;11.25;10.15;;;;;;;11.73;87.74;101736.56;7395596;19;20014;-65
2022/05/08 02:25:58;;;;;;;12.73;9.73;;;;;;;11.73;87.93;101739.19;7395691;19;20026;-65
2022/05/08 02:28:33;;;;;;;10.70;9.23;;;;;;;11.74;87.85;101745.34;7395224;19;20381;-65
2022/05/08 02:31:02;;;;;;;9.18;8.23;;;;;;;11.73;87.88;101735.69;7395488;19;20021;-65
2022/05/08 02:33:32;;;;;;;11.20;9.77;;;;;;;11.71;88.11;101733.09;7396879;19;20422;-66
2022/05/08 02:36:01;;;;;;;10.00;8.93;;;;;;;11.71;87.97;101742.72;7397552;19;20035;-65
2022/05/08 02:38:29;;;;;;;13.40;9.65;;;;;;;11.70;88.06;101736.59;7396695;19;20504;-66
2022/05/08 02:40:57;;;;;;;9.90;8.90;;;;;;;11.70;88.06;101738.34;7394658;19;20418;-65
2022/05/08 02:43:25;;;;;;;10.30;9.30;;;;;;;11.69;88.15;101736.59;7395485;19;20512;-66
2022/05/08 02:45:55;;;;;;;10.38;9.13;;;;;;;11.68;88.09;101737.50;7396508;19;20403;-66
2022/05/08 02:48:24;;;;;;;11.27;10.02;;;;;;;11.66;88.07;101737.50;7397310;19;20031;-65
2022/05/08 02:50:54;;;;;;;11.35;10.00;;;;;;;11.65;88.14;101742.78;7394868;19;20480;-66
2022/05/08 02:53:23;;;;;;;11.10;9.98;;;;;;;11.65;88.25;101748.91;7395361;19;20035;-65
2022/05/08 02:58:34;;;;;;;12.38;11.13;;;;;;;11.63;88.21;101749.81;7396752;19;20558;-65
2022/05/08 03:01:05;;;;;;;11.73;8.55;;;;;;;11.62;88.31;101753.34;7396831;19;20010;-65
2022/05/08 03:03:33;;;;;;;9.13;8.18;;;;;;;11.60;88.20;101757.72;7394635;19;20010;-65
2022/05/08 03:06:04;;;;;;;10.40;8.23;;;;;;;11.58;88.07;101757.75;7394212;19;20426;-65
2022/05/08 03:08:33;;;;;;;9.68;7.75;;;;;;;11.58;88.11;101765.63;7396555;19;20018;-65
2022/05/08 03:13:43;;;;;;;8.18;7.32;;;;;;;11.57;87.96;101762.16;7395777;19;20019;-65
2022/05/08 03:16:12;;;;;;;8.43;7.13;;;;;;;11.60;87.77;101765.59;7394255;19;20022;-65
2022/05/08 03:18:41;;;;;;;8.60;7.70;;;;;;;11.60;87.42;101758.63;7395859;19;20035;-64
2022/05/08 03:21:12;;;;;;;7.32;6.45;;;;;;;11.61;87.31;101770.84;7395752;19;20039;-65
2022/05/08 03:23:41;;;;;;;9.02;6.90;;;;;;;11.62;86.78;101772.59;7395940;19;20023;-64
2022/05/08 03:26:12;;;;;;;7.65;6.85;;;;;;;11.63;86.67;101774.34;7395557;19;20023;-65
2022/05/08 03:28:41;;;;;;;8.93;6.07;;;;;;;11.64;86.31;101772.56;7394189;19;20018;-65
2022/05/08 03:31:09;;;;;;;10.15;6.60;;;;;;;11.64;86.37;101773.47;7392755;19;20014;-64
2022/05/08 03:33:39;;;;;;;7.95;6.13;;;;;;;11.65;86.08;101775.22;7393675;19;20022;-65
2022/05/08 03:36:10;;;;;;;7.47;6.18;;;;;;;11.66;85.74;101776.06;7394925;19;20484;-65
2022/05/08 03:38:42;;;;;;;7.43;6.28;;;;;;;11.67;85.67;101777.81;7395682;19;20023;-65
2022/05/08 03:41:15;;;;;;;7.97;5.90;;;;;;;11.67;85.43;101775.19;7394215;19;20472;-65
2022/05/08 03:43:43;;;;;;;9.32;6.07;;;;;;;11.68;85.39;101777.78;7393832;19;20015;-65
2022/05/08 03:46:13;;;;;;;6.55;5.63;;;;;;;11.70;85.13;101772.50;7393489;19;20019;-64
2022/05/08 03:48:41;;;;;;;7.65;6.85;;;;;;;11.71;85.03;101774.25;7395122;19;20015;-65
2022/05/08 03:51:10;;;;;;;7.85;5.85;;;;;;;11.72;84.82;101773.38;7393556;19;20032;-64
2022/05/08 03:53:41;;;;;;;7.90;5.80;;;;;;;11.73;84.44;101783.88;7394652;19;20025;-66
2022/05/08 03:56:10;;;;;;;6.72;6.05;;;;;;;11.74;84.57;101785.63;7394576;19;20603;-63
2022/05/08 03:58:38;;;;;;;6.70;6.00;;;;;;;11.76;84.54;101788.22;7394832;19;20030;-65
2022/05/08 04:01:06;;;;;;;6.78;6.00;;;;;;;11.76;84.26;101788.22;7394741;19;20038;-65
2022/05/08 04:03:35;;;;;;;8.27;6.18;;;;;;;11.76;84.11;101782.97;7394406;19;20025;-64
2022/05/08 04:06:04;;;;;;;7.07;6.05;;;;;;;11.78;84.12;101794.34;7394629;19;20039;-65
2022/05/08 04:08:33;;;;;;;6.93;5.90;;;;;;;11.79;84.05;101793.47;7392665;19;20019;-65
2022/05/08 04:11:04;;;;;;;8.70;6.30;;;;;;;11.80;83.95;101789.06;7392764;19;20054;-65
2022/05/08 04:13:32;;;;;;;5.97;5.25;;;;;;;11.81;83.88;101794.31;7394339;19;20368;-64
2022/05/08 04:18:41;;;;;;;6.80;6.13;;;;;;;11.84;83.42;101804.81;7394407;19;20021;-65
2022/05/08 04:21:09;;;;;;;7.00;5.68;;;;;;;11.85;83.39;101803.94;7391921;19;20042;-65
2022/05/08 04:26:21;;;;;;;6.47;4.95;;;;;;;11.87;82.74;101809.16;7393986;19;20007;-65
2022/05/08 04:28:49;;;;;;;6.35;5.30;;;;;;;11.88;82.73;101813.53;7392221;19;20010;-65
2022/05/08 04:31:17;;;;;;;6.05;5.05;;;;;;;11.87;82.51;101807.41;7391956;19;20022;-65
2022/05/08 04:33:46;;;;;;;6.03;5.43;;;;;;;11.89;82.66;101815.25;7391559;19;20018;-66
2022/05/08 04:36:14;;;;;;;8.52;5.40;;;;;;;11.89;82.41;101824.03;7393529;19;20026;-65
2022/05/08 04:38:42;;;;;;;5.22;4.72;;;;;;;11.90;81.89;101817.91;7394368;19;20437;-65
2022/05/08 04:41:10;;;;;;;4.68;4.05;;;;;;;11.92;81.68;101817.00;7393627;19;20031;-65
2022/05/08 04:43:41;;;;;;;4.85;4.45;;;;;;;11.91;81.59;101824.03;7397395;19;20515;-65
2022/05/08 04:46:11;;;;;;;5.57;4.60;;;;;;;11.92;81.49;101824.88;7398016;19;20476;-65
2022/05/08 04:48:41;;;;;;;7.22;4.55;;;;;;;11.94;81.45;101829.22;7401290;19;20018;-65
2022/05/08 04:51:17;;;;;;;7.30;4.78;;;;;;;11.96;81.39;101827.50;7397165;19;20346;-65
2022/05/08 04:53:45;;;;;;;6.75;4.10;;;;;;;11.98;81.10;101830.13;7400551;19;20036;-65
2022/05/08 04:56:13;;;;;;;5.18;4.00;;;;;;;12.00;81.04;101839.72;7400615;19;20063;-65
2022/05/08 04:58:44;;;;;;;5.28;4.05;;;;;;;12.01;80.88;101844.09;7397954;19;20027;-65
2022/05/08 05:01:12;;;;;;;5.03;4.15;;;;;;;12.03;80.96;101841.44;7397932;19;20026;-65
2022/05/08 05:03:41;;;;;;;4.03;3.72;;;;;;;12.03;80.75;101850.25;7397701;19;20511;-65
2022/05/08 05:06:09;;;;;;;4.20;3.80;;;;;;;12.05;80.77;101847.59;7400227;19;20078;-65
2022/05/08 05:08:37;;;;;;;4.63;4.18;;;;;;;12.06;80.52;101849.34;7400194;19;20039;-65
2022/05/08 05:11:09;;;;;;;6.25;3.92;;;;;;;12.06;80.48;101852.81;7397130;19;20422;-65
2022/05/08 05:13:37;;;;;;;7.03;4.15;;;;;;;12.09;80.64;101861.59;7397577;19;20343;-65
2022/05/08 05:16:08;;;;;;;5.80;4.35;;;;;;;12.08;80.35;101855.47;7396789;19;20472;-65
2022/05/08 05:18:36;;;;;;;5.00;4.18;;;;;;;12.10;80.15;101858.94;7397538;19;20426;-65
2022/05/08 05:21:04;;;;;;;5.05;3.97;;;;;;;12.11;80.15;101868.56;7397227;19;20023;-65
2022/05/08 05:23:32;;;;;;;5.80;4.30;;;;;;;12.14;80.08;101863.25;7396952;19;20022;-65
2022/05/08 05:26:01;;;;;;;4.97;3.97;;;;;;;12.16;80.05;101866.75;7397497;19;20023;-65
2022/05/08 05:28:29;;;;;;;5.88;4.43;;;;;;;12.19;79.94;101874.59;7399359;19;20023;-65
2022/05/08 05:30:57;;;;;;;5.80;3.90;;;;;;;12.20;79.74;101872.88;7396830;19;20022;-65
2022/05/08 05:33:28;;;;;;;4.95;4.15;;;;;;;12.22;79.67;101874.59;7396752;19;20039;-65
2022/05/08 05:35:56;;;;;;;4.80;3.80;;;;;;;12.26;79.72;101877.19;7399271;19;20018;-65
2022/05/08 05:38:24;;;;;;;4.70;4.20;;;;;;;12.30;79.73;101878.91;7396665;19;20019;-65
2022/05/08 05:40:52;;;;;;;4.40;3.90;;;;;;;12.33;79.46;101884.13;7398648;19;20362;-64
2022/05/08 05:43:20;;;;;;;5.85;4.30;;;;;;;12.36;79.25;101889.38;7398821;19;20026;-65
2022/05/08 05:47:49;;;;;;;5.43;3.83;;;;;;;12.37;78.93;101891.97;7398794;19;20026;-64
2022/05/08 05:48:37;;;;;;;4.25;3.78;;;;;;;12.39;79.02;101891.97;7398252;19;20502;-66
2022/05/08 05:51:06;;;;;;;4.20;3.80;;;;;;;12.38;78.18;101900.72;7395860;19;20110;-65
2022/05/08 05:53:34;;;;;;;4.72;2.95;;;;;;;12.35;78.49;101885.00;7396007;19;20023;-66
2022/05/08 05:56:02;;;;;;;6.18;3.72;;;;;;;12.32;78.23;101901.69;7398540;19;20035;-66
2022/05/08 05:58:30;;;;;;;3.65;3.13;;;;;;;12.30;78.33;101898.19;7396195;19;20035;-65
2022/05/08 06:00:59;;;;;;;5.30;3.60;;;;;;;12.29;78.56;101898.22;7398219;19;20018;-66
2022/05/08 06:03:27;;;;;;;4.57;3.78;;;;;;;12.32;78.08;101903.44;7398111;19;20023;-65
2022/05/08 06:05:58;;;;;;;6.22;3.63;;;;;;;12.31;77.74;101904.31;7396062;19;20025;-66
2022/05/08 06:08:26;;;;;;;6.20;3.30;;;;;;;12.27;77.51;101906.13;7398488;19;20014;-65
2022/05/08 06:10:54;;;;;;;7.43;3.90;;;;;;;12.22;77.65;101910.56;7396732;19;20107;-65
2022/05/08 06:13:23;;;;;;;5.10;3.22;;;;;;;12.17;77.21;101915.88;7398655;19;20019;-67
2022/05/08 06:15:51;;;;;;;6.63;3.58;;;;;;;12.13;77.11;101918.53;7395686;19;20025;-66
2022/05/08 06:18:19;;;;;;;6.18;3.00;;;;;;;12.05;75.96;101915.97;7395727;19;20018;-66
2022/05/08 06:20:47;;;;;;;6.22;2.75;;;;;;;12.05;75.74;101931.75;7395506;19;20014;-65
2022/05/08 06:23:18;;;;;;;10.50;2.95;;;;;;;12.03;75.94;101928.25;7397127;19;20022;-65
2022/05/08 06:25:46;;;;;;;9.32;3.05;;;;;;;12.04;75.69;101924.75;7395341;19;20018;-66
2022/05/08 06:28:19;;;;;;;7.72;3.10;;;;;;;12.03;75.94;101925.63;7395286;19;20019;-67
2022/05/08 06:30:48;;;;;;;5.60;2.70;;;;;;;12.02;75.43;101931.78;7397229;19;20399;-66
2022/05/08 06:33:16;;;;;;;8.75;3.40;;;;;;;12.00;75.35;101930.94;7397184;19;20041;-66
2022/05/08 06:35:44;;;;;;;8.02;3.45;;;;;;;11.98;75.67;101930.94;7395010;19;20014;-66
2022/05/08 06:38:12;;;;;;;8.00;3.28;;;;;;;11.99;75.71;101927.44;7395021;19;20022;-66
2022/05/08 06:40:45;;;;;;;9.18;3.53;;;;;;;12.00;75.74;101933.56;7395161;19;20079;-66
2022/05/08 06:43:13;;;;;;;9.10;3.20;;;;;;;12.03;75.96;101923.00;7397289;19;20011;-66
2022/05/08 06:45:41;;;;;;;8.05;3.60;;;;;;;12.04;75.80;101924.75;7394415;19;20383;-66
2022/05/08 06:48:10;;;;;;;8.55;3.50;;;;;;;12.07;76.00;101932.63;7396660;19;20046;-66
2022/05/08 06:50:38;;;;;;;9.77;3.83;;;;;;;12.08;75.96;101934.38;7394397;19;20038;-66
2022/05/08 06:53:07;;;;;;;7.45;3.80;;;;;;;12.10;75.91;101934.34;7394948;19;20022;-65
2022/05/08 06:55:35;;;;;;;13.23;3.92;;;;;;;12.09;75.72;101932.59;7394743;19;20019;-65
2022/05/08 06:58:06;;;;;;;9.85;3.40;;;;;;;12.09;75.85;101943.13;7394647;19;20349;-66
2022/05/08 07:03:15;;;;;;;14.10;3.95;;;;;;;12.16;76.11;101948.31;7396859;19;20011;-65
2022/05/08 07:05:47;;;;;;;7.07;3.67;;;;;;;12.19;76.02;101943.00;7392857;19;20046;-65
2022/05/08 07:08:15;;;;;;;6.97;3.80;;;;;;;12.20;75.84;101952.66;7396533;19;20118;-65
2022/05/08 07:10:43;;;;;;;7.97;3.90;;;;;;;12.19;76.02;101952.69;7395472;19;20018;-66
2022/05/08 07:13:15;;;;;;;9.75;3.83;;;;;;;12.19;76.14;101952.69;7395689;19;20427;-65
2022/05/08 07:15:43;;;;;;;8.35;3.58;;;;;;;12.24;76.26;101947.38;7394843;19;20035;-66
2022/05/08 07:18:11;;;;;;;6.85;3.55;;;;;;;12.29;76.00;101961.38;7395954;19;20035;-66
2022/05/08 07:20:39;;;;;;;10.38;3.90;;;;;;;12.35;75.97;101946.38;7394181;19;20477;-66
2022/05/08 07:23:07;;;;;;;6.13;4.28;;;;;;;12.45;75.92;101951.53;7395438;19;20423;-66
2022/05/08 07:25:37;;;;;;;11.90;4.60;;;;;;;12.52;75.50;101951.47;7394061;19;20026;-66
2022/05/08 07:28:06;;;;;;;10.50;4.22;;;;;;;12.61;75.47;101954.88;7395511;19;20029;-66
2022/05/08 07:30:37;;;;;;;8.57;3.67;;;;;;;12.69;74.55;101953.06;7393629;19;20022;-67
2022/05/08 07:33:05;;;;;;;7.90;3.83;;;;;;;12.77;74.58;101947.69;7393253;19;20430;-66
2022/05/08 07:38:16;;;;;;;7.28;3.35;;;;;;;12.93;73.82;101948.38;7395289;19;20011;-66
2022/05/08 07:40:47;;;;;;;7.35;3.60;;;;;;;12.97;73.51;101950.09;7394690;19;20019;-66
2022/05/08 07:43:16;;;;;;;9.23;3.53;;;;;;;13.01;73.09;101951.78;7395299;19;20014;-66
2022/05/08 07:45:48;;;;;;;8.93;3.50;;;;;;;13.09;72.76;101949.94;7392876;19;20030;-65
2022/05/08 07:48:17;;;;;;;9.23;3.33;;;;;;;13.20;72.49;101950.69;7392651;19;20407;-65
2022/05/08 07:51:00;;;;;;;6.53;3.35;;;;;;;13.31;72.00;101955.78;7392984;19;20017;-67
2022/05/08 07:53:28;;;;;;;5.90;2.85;;;;;;;13.38;71.51;101956.59;7394938;19;20018;-65
2022/05/08 07:55:57;;;;;;;9.48;3.92;;;;;;;13.43;71.30;101956.53;7392828;19;20029;-64
2022/05/08 07:58:27;;;;;;;7.88;3.70;;;;;;;13.47;71.28;101948.56;7394521;19;20022;-66
2022/05/08 08:00:58;;;;;;;7.72;3.22;;;;;;;13.55;70.91;101950.19;7394599;19;20383;-65
2022/05/08 08:03:28;;;;;;;7.22;3.42;;;;;;;13.64;70.56;101961.50;7394743;19;20018;-67
2022/05/08 08:05:58;;;;;;;7.20;2.60;;;;;;;13.73;70.37;101949.94;7393418;19;20018;-66
2022/05/08 08:08:26;;;;;;;9.93;3.28;;;;;;;13.85;69.63;101959.44;7392310;19;20534;-64
2022/05/08 08:10:58;;;;;;;8.88;3.05;;;;;;;13.93;69.01;101957.53;7393678;19;20036;-65
2022/05/08 08:13:29;;;;;;;7.88;2.97;;;;;;;13.98;68.77;101957.47;7391968;19;20430;-66
2022/05/08 08:16:00;;;;;;;11.07;3.45;;;;;;;14.01;68.03;101957.41;7394276;19;20014;-66
2022/05/08 08:18:29;;;;;;;7.28;2.55;;;;;;;14.02;68.02;101961.78;7398266;19;20018;-66
2022/05/08 08:20:58;;;;;;;6.15;2.70;;;;;;;14.06;67.66;101960.84;7401270;19;20469;-66
2022/05/08 08:23:27;;;;;;;8.10;2.72;;;;;;;14.08;67.22;101953.78;7399373;19;20019;-65
2022/05/08 08:25:56;;;;;;;7.47;3.00;;;;;;;14.12;66.96;101960.72;7401886;19;20034;-66
2022/05/08 08:28:24;;;;;;;7.07;2.88;;;;;;;14.17;66.50;101958.03;7401630;19;20022;-65
2022/05/08 08:30:52;;;;;;;11.65;3.25;;;;;;;14.21;65.96;101964.97;7400325;19;20390;-65
2022/05/08 08:33:26;;;;;;;9.38;3.30;;;;;;;14.26;65.48;101964.91;7400595;19;20027;-66
2022/05/08 08:35:55;;;;;;;10.00;3.45;;;;;;;14.28;65.33;101969.25;7400710;19;20511;-66
2022/05/08 08:38:23;;;;;;;10.77;2.85;;;;;;;14.34;65.45;101963.00;7400875;19;20381;-66
2022/05/08 08:40:52;;;;;;;8.32;3.45;;;;;;;14.39;65.07;101970.84;7397903;19;20026;-66
2022/05/08 08:43:21;;;;;;;6.35;3.00;;;;;;;14.43;64.97;101965.47;7400502;19;20496;-66
2022/05/08 08:48:34;;;;;;;12.80;3.20;;;;;;;14.55;64.89;101971.44;7401094;19;20019;-66
2022/05/08 08:51:05;;;;;;;5.70;2.60;;;;;;;14.61;64.87;101966.03;7399208;19;20007;-67
2022/05/08 08:53:33;;;;;;;11.43;5.35;;;;;;;14.66;64.95;101973.00;7398346;19;20035;-68
2022/05/08 08:56:02;;;;;;;15.18;6.38;;;;;;;14.73;64.84;101972.88;7397911;19;20033;-66
2022/05/08 08:58:30;;;;;;;10.90;3.30;;;;;;;14.78;65.05;101974.50;7400169;19;20014;-66
2022/05/08 09:00:58;;;;;;;10.52;3.78;;;;;;;14.83;64.99;101975.28;7397626;19;20018;-66
2022/05/08 09:03:29;;;;;;;9.00;3.28;;;;;;;14.90;64.45;101969.88;7396853;19;20434;-66
2022/05/08 09:06:02;;;;;;;7.53;2.65;;;;;;;14.94;63.72;101971.59;7397775;19;20022;-65
2022/05/08 09:08:32;;;;;;;7.13;3.40;;;;;;;14.97;62.68;101967.13;7399536;19;20509;-66
2022/05/08 09:11:00;;;;;;;6.53;2.88;;;;;;;15.02;62.89;101972.28;7396807;19;20035;-66
2022/05/08 09:13:29;;;;;;;6.88;3.00;;;;;;;15.09;62.83;101970.38;7399405;19;20025;-65
2022/05/08 09:16:04;;;;;;;5.65;2.40;;;;;;;15.15;61.65;101970.25;7397103;19;20018;-67
2022/05/08 09:18:44;;;;;;;10.27;3.72;;;;;;;15.21;61.40;101978.03;7399543;19;20032;-66
2022/05/08 09:24:11;;;;;;;8.90;4.13;;;;;;;15.25;62.06;101970.91;7398908;19;20097;-66
2022/05/08 09:26:39;;;;;;;7.57;3.28;;;;;;;15.27;61.75;101980.56;7396983;19;20023;-67
2022/05/08 09:29:08;;;;;;;7.30;3.42;;;;;;;15.32;61.90;101973.41;7398457;19;20023;-67
2022/05/08 09:31:41;;;;;;;12.30;3.75;;;;;;;15.39;61.75;101978.56;7396559;19;20022;-67
2022/05/08 09:34:09;;;;;;;9.37;3.30;;;;;;;15.44;61.82;101982.84;7397059;19;20018;-67
2022/05/08 09:36:40;;;;;;;9.20;4.28;;;;;;;15.51;62.03;101977.44;7398732;19;20022;-68
2022/05/08 09:39:08;;;;;;;8.65;3.58;;;;;;;15.59;62.32;101980.75;7399624;19;20039;-67
2022/05/08 09:41:39;;;;;;;16.65;5.95;;;;;;;15.67;61.68;101976.16;7398385;19;20343;-66
2022/05/08 09:44:11;;;;;;;10.13;3.45;;;;;;;15.75;60.42;101979.47;7396448;19;20022;-66
2022/05/08 09:46:43;;;;;;;10.80;4.15;;;;;;;15.83;61.38;101975.81;7396375;19;20014;-66
2022/05/08 09:49:13;;;;;;;9.68;3.72;;;;;;;15.84;60.91;101981.06;7396910;19;20041;-66
2022/05/08 09:51:45;;;;;;;8.50;3.30;;;;;;;15.87;60.73;101974.84;7395824;19;20015;-66
2022/05/08 09:54:16;;;;;;;7.45;3.05;;;;;;;15.90;58.92;101969.47;7397415;19;20383;-66
2022/05/08 09:56:45;;;;;;;11.55;3.00;;;;;;;15.92;58.98;101973.84;7398638;19;20011;-67
2022/05/08 09:59:14;;;;;;;11.70;2.63;;;;;;;15.95;58.45;101979.03;7396436;19;20011;-67
2022/05/08 10:01:44;;;;;;;10.57;3.15;;;;;;;16.03;58.51;101978.84;7397499;19;20446;-65
2022/05/08 10:04:12;;;;;;;6.63;2.70;;;;;;;16.13;58.32;101975.03;7395900;19;20039;-66
2022/05/08 10:06:45;;;;;;;11.25;3.00;;;;;;;16.24;57.52;101973.94;7397667;19;20453;-67
2022/05/08 10:14:37;;;;;;;6.55;3.20;;;;;;;16.50;53.87;101977.66;7397104;19;20346;-69
2022/05/08 10:17:06;;;;;;;8.88;2.78;;;;;;;16.58;55.59;101970.34;7397171;19;20422;-66
2022/05/08 10:19:55;;;;;;;7.57;2.72;;;;;;;16.66;54.16;101965.72;7397258;19;20039;-66
2022/05/08 10:22:27;;;;;;;5.78;2.67;;;;;;;16.75;54.40;101970.75;7396325;19;20031;-66
2022/05/08 10:24:58;;;;;;;8.85;2.72;;;;;;;16.87;54.70;101972.22;7399898;19;20019;-66
2022/05/08 10:27:28;;;;;;;7.35;2.90;;;;;;;16.87;54.65;101966.03;7402334;19;20034;-67
2022/05/08 10:30:32;;;;;;;10.90;2.95;;;;;;;16.88;54.07;101967.75;7397415;19;20022;-65
2022/05/08 10:33:01;;;;;;;13.57;5.35;;;;;;;16.95;54.79;101964.06;7396209;19;20011;-66
2022/05/08 10:35:32;;;;;;;5.95;2.20;;;;;;;17.06;55.28;101954.00;7395627;19;20023;-68
2022/05/08 10:38:25;;;;;;;9.00;2.70;;;;;;;17.15;53.51;101957.28;7397573;19;20015;-68
2022/05/08 10:40:55;;;;;;;5.90;2.53;;;;;;;17.17;53.23;101960.78;7392618;19;20485;-66
2022/05/08 10:43:33;;;;;;;6.93;2.47;;;;;;;17.16;52.20;101962.56;7397364;19;20022;-67
2022/05/08 10:46:23;;;;;;;6.00;2.60;;;;;;;17.21;51.66;101950.03;7394795;19;20025;-66
2022/05/08 10:48:53;;;;;;;9.15;2.75;;;;;;;17.31;53.16;101957.69;7395149;19;20037;-66
2022/05/08 10:51:21;;;;;;;7.60;2.53;;;;;;;17.40;53.29;101947.69;7395012;19;20014;-66
2022/05/08 10:53:52;;;;;;;9.88;2.55;;;;;;;17.52;51.44;101945.56;7396370;19;20019;-66
2022/05/08 10:56:20;;;;;;;6.00;2.42;;;;;;;17.62;51.26;101951.44;7395237;19;20031;-67
2022/05/08 10:58:55;;;;;;;11.48;2.53;;;;;;;17.75;50.16;101952.78;7396497;19;20014;-66
2022/05/08 11:01:25;;;;;;;7.70;2.33;;;;;;;17.83;50.18;101947.19;7395104;19;20045;-67
2022/05/08 11:03:53;;;;;;;7.90;2.30;;;;;;;17.92;49.36;101955.72;7394351;19;20035;-65
2022/05/08 11:06:23;;;;;;;10.95;2.33;;;;;;;17.97;48.32;101954.75;7395973;19;20381;-65
2022/05/08 11:09:02;;;;;;;6.35;1.80;;;;;;;17.97;46.13;101955.63;7395113;19;20034;-66
2022/05/08 11:11:30;;;;;;;10.13;2.63;;;;;;;17.96;48.00;101948.56;7396255;19;20018;-66
2022/05/08 11:13:58;;;;;;;4.65;2.15;;;;;;;17.99;47.30;101951.09;7395283;19;20022;-67
2022/05/08 11:16:34;;;;;;;7.97;2.15;;;;;;;18.02;46.03;101943.06;7396367;19;20022;-65
2022/05/08 11:19:03;;;;;;;5.50;1.40;;;;;;;18.13;46.93;101937.38;7396375;19;20010;-66
2022/05/08 11:21:31;;;;;;;6.35;2.03;;;;;;;18.18;44.45;101942.53;7395891;19;20019;-67
2022/05/08 11:24:03;;;;;;;5.25;1.65;;;;;;;18.13;42.47;101945.31;7393717;19;20385;-66
2022/05/08 11:26:33;;;;;;;8.90;2.88;;;;;;;18.17;44.13;101943.44;7395916;19;20025;-65
2022/05/08 11:29:01;;;;;;;4.80;1.42;;;;;;;18.21;44.21;101945.06;7394993;19;20042;-66
2022/05/08 11:31:30;;;;;;;7.78;2.13;;;;;;;18.24;44.42;101931.69;7394966;19;20015;-67
2022/05/08 11:36:41;;;;;;;10.63;2.17;;;;;;;18.33;43.91;101939.31;7395379;19;20015;-67
2022/05/08 11:39:16;;;;;;;5.00;1.80;;;;;;;18.33;42.71;101935.81;7395010;19;20025;-66
2022/05/08 11:41:46;;;;;;;6.93;1.92;;;;;;;18.40;43.74;101932.03;7394616;19;20375;-67
2022/05/08 11:44:23;;;;;;;6.70;1.60;;;;;;;18.49;41.67;101928.16;7393919;19;20083;-66
2022/05/08 11:46:54;;;;;;;6.10;2.00;;;;;;;18.65;42.80;101931.13;7393758;19;20014;-66
2022/05/08 11:49:23;;;;;;;6.07;1.65;;;;;;;18.89;43.38;101922.22;7392432;19;20489;-66
2022/05/08 11:51:54;;;;;;;3.75;1.33;;;;;;;19.13;41.99;101929.34;7396809;19;20015;-66
2022/05/08 11:54:27;;;;;;;5.03;1.70;;;;;;;19.31;39.25;101925.97;7400356;19;20090;-67
2022/05/08 11:57:13;;;;;;;6.13;1.83;;;;;;;19.42;37.74;101928.19;7402362;19;20029;-67
2022/05/08 11:59:43;;;;;;;4.72;1.45;;;;;;;19.49;39.93;101926.16;7400577;19;20018;-66
2022/05/08 12:02:11;;;;;;;4.07;1.50;;;;;;;19.54;39.85;101911.72;7402648;19;20018;-66
2022/05/08 12:04:41;;;;;;;6.45;1.88;;;;;;;19.66;40.24;101921.03;7399846;19;20501;-68